Time;durP1;ratioP1;P1;durP2;ratioP2;P2;SDS_P1;SDS_P2;PMS_P1;PMS_P2;Temp;Humidity;BMP_temperature;BMP_pressure;BME280_temperature;BME280_humidity;BME280_pressure;Samples;Min_cycle;Max_cycle;Signal;HPM_P1;HPM_P2
2021/08/18 00:01:13;;;;;;;3.42;1.17;;;;;;;26.22;41.11;100888.31;4411165;32;20085;-68
2021/08/18 00:03:40;;;;;;;1.62;1.02;;;;;;;26.22;41.32;100885.41;4405567;32;20489;-68
2021/08/18 00:06:06;;;;;;;3.72;0.98;;;;;;;26.13;41.82;100890.78;4406413;32;20054;-68
2021/08/18 00:08:32;;;;;;;6.82;1.20;;;;;;;26.37;nan;100888.63;4408098;32;20418;-68
2021/08/18 00:10:58;;;;;;;2.97;1.15;;;;;;;26.16;41.75;100892.56;4405766;32;20408;-68
2021/08/18 00:13:24;;;;;;;2.75;0.95;;;;;;;25.81;42.47;100890.59;4409110;32;20369;-68
2021/08/18 00:15:52;;;;;;;1.62;0.93;;;;;;;25.87;42.32;100890.53;4409336;32;20089;-68
2021/08/18 00:18:18;;;;;;;1.62;1.00;;;;;;;26.16;41.81;100890.47;4409251;32;20034;-68
2021/08/18 00:20:44;;;;;;;2.75;1.20;;;;;;;25.92;42.19;100886.81;4408989;32;20046;-68
2021/08/18 00:23:10;;;;;;;2.35;1.05;;;;;;;26.26;41.57;100890.87;4407461;32;20057;-68
2021/08/18 00:25:35;;;;;;;2.15;1.00;;;;;;;26.07;41.78;100890.84;4408521;32;20018;-68
2021/08/18 00:28:02;;;;;;;3.35;0.90;;;;;;;26.07;41.66;100881.41;4409450;32;20113;-68
2021/08/18 00:30:28;;;;;;;1.50;0.90;;;;;;;26.28;41.38;100882.44;4404726;32;20018;-68
2021/08/18 00:32:53;;;;;;;2.58;1.08;;;;;;;26.33;40.90;100882.41;4408715;32;20391;-68
2021/08/18 00:35:20;;;;;;;4.25;1.08;;;;;;;25.96;41.85;100876.53;4404180;32;20145;-68
2021/08/18 00:37:47;;;;;;;3.65;1.17;;;;;;;26.01;41.74;100881.47;4408330;32;20053;-68
2021/08/18 00:40:14;;;;;;;2.85;0.93;;;;;;;26.15;41.65;100873.72;4402185;32;20034;-69
2021/08/18 00:42:42;;;;;;;2.08;0.95;;;;;;;26.43;41.27;100874.91;4413045;32;20091;-68
2021/08/18 00:45:09;;;;;;;1.87;0.90;;;;;;;26.49;41.10;100871.94;4409022;32;20375;-68
2021/08/18 00:50:20;;;;;;;1.77;1.08;;;;;;;27.36;39.68;100866.09;3981144;32;15147934;-66
2021/08/18 00:52:46;;;;;;;2.00;0.90;;;;;;;27.36;39.68;100866.09;4443493;32;20429;-69
2021/08/18 00:55:15;;;;;;;2.28;0.82;;;;;;;26.79;40.07;100867.56;4439430;32;20037;-68
2021/08/18 00:57:42;;;;;;;4.25;0.98;;;;;;;26.77;40.27;100861.56;4441867;32;20479;-68
2021/08/18 01:00:09;;;;;;;1.92;1.00;;;;;;;26.75;40.39;100858.44;4441393;32;20436;-68
2021/08/18 01:02:36;;;;;;;1.33;0.73;;;;;;;26.66;40.54;100860.97;4440122;32;20061;-68
2021/08/18 01:05:08;;;;;;;2.10;0.93;;;;;;;26.22;41.33;100861.53;4439763;32;20433;-68
2021/08/18 01:07:35;;;;;;;3.42;1.23;;;;;;;26.44;41.20;100859.12;4441225;32;20108;-68
2021/08/18 01:10:05;;;;;;;1.62;0.90;;;;;;;26.36;41.15;100848.78;4439618;32;20069;-68
2021/08/18 01:12:33;;;;;;;2.78;1.08;;;;;;;26.45;41.30;100845.50;4441912;32;20086;-68
2021/08/18 01:14:59;;;;;;;1.92;0.82;;;;;;;26.31;41.43;100855.38;4439762;32;20533;-68
2021/08/18 01:17:31;;;;;;;2.58;1.05;;;;;;;26.23;41.39;100848.69;4442108;32;20148;-68
2021/08/18 01:19:57;;;;;;;2.17;1.10;;;;;;;26.84;40.25;100843.59;4439952;32;20006;-68
2021/08/18 01:22:23;;;;;;;3.28;1.00;;;;;;;26.31;41.22;100843.84;4437484;32;20065;-68
2021/08/18 01:24:48;;;;;;;2.58;1.00;;;;;;;26.10;41.21;100831.28;4441078;32;20125;-68
2021/08/18 01:27:14;;;;;;;1.98;0.95;;;;;;;25.79;41.88;100834.78;4442245;32;20370;-68
2021/08/18 01:29:40;;;;;;;2.45;1.30;;;;;;;25.93;41.60;100827.81;4437734;32;20457;-68
2021/08/18 01:32:06;;;;;;;4.03;1.20;;;;;;;25.66;42.18;100826.81;4441281;32;20065;-68
2021/08/18 01:34:35;;;;;;;3.03;1.23;;;;;;;25.87;41.73;100829.97;4442404;32;20414;-68
2021/08/18 01:37:01;;;;;;;2.15;1.15;;;;;;;25.99;41.54;100819.91;4441169;32;21327;-68
2021/08/18 01:39:26;;;;;;;5.43;1.33;;;;;;;25.71;41.82;100819.44;4436606;32;20652;-68
2021/08/18 01:41:52;;;;;;;4.47;1.87;;;;;;;25.54;42.27;100813.88;4441789;32;20094;-68
2021/08/18 01:44:18;;;;;;;4.35;1.48;;;;;;;25.82;41.57;100814.31;4439386;32;20359;-68
2021/08/18 01:46:43;;;;;;;2.15;1.23;;;;;;;25.92;41.40;100806.06;4440344;32;20040;-68
2021/08/18 01:49:09;;;;;;;2.15;1.20;;;;;;;26.07;40.92;100806.41;4438963;32;20216;-68
2021/08/18 01:51:35;;;;;;;2.78;1.27;;;;;;;26.02;40.96;100792.84;4437844;32;20056;-68
2021/08/18 01:54:01;;;;;;;1.50;0.95;;;;;;;25.69;41.35;100799.81;4439051;32;20107;-68
2021/08/18 01:56:27;;;;;;;1.75;0.95;;;;;;;25.19;42.48;100803.19;4439042;32;20049;-68
2021/08/18 01:58:53;;;;;;;2.22;0.90;;;;;;;25.67;41.63;100813.22;4437631;32;20038;-68
2021/08/18 02:01:18;;;;;;;1.80;1.00;;;;;;;26.00;41.12;100799.16;4430800;32;20038;-68
2021/08/18 02:03:44;;;;;;;1.70;0.80;;;;;;;26.13;40.61;100801.34;4431870;32;20469;-68
2021/08/18 02:06:10;;;;;;;3.28;1.37;;;;;;;26.27;40.50;100811.66;4429703;32;20034;-68
2021/08/18 02:08:36;;;;;;;2.28;1.50;;;;;;;26.44;40.27;100810.06;4430076;32;20025;-68
2021/08/18 02:11:03;;;;;;;1.83;1.15;;;;;;;26.52;39.83;100813.91;4425338;32;20099;-68
2021/08/18 02:13:29;;;;;;;3.35;1.40;;;;;;;26.50;39.56;100804.22;4429806;32;20377;-68
2021/08/18 02:15:55;;;;;;;3.10;1.65;;;;;;;26.33;39.94;100806.56;4431146;32;20022;-68
2021/08/18 02:18:21;;;;;;;1.52;1.00;;;;;;;26.53;39.59;100801.00;4425341;32;20217;-68
2021/08/18 02:20:47;;;;;;;5.45;1.40;;;;;;;26.73;39.27;100799.69;4429467;32;20400;-68
2021/08/18 02:23:15;;;;;;;2.47;1.40;;;;;;;26.59;39.36;100803.81;4429261;32;20025;-68
2021/08/18 02:25:41;;;;;;;4.78;1.70;;;;;;;26.75;39.29;100806.47;4428944;32;20041;-68
2021/08/18 02:28:07;;;;;;;4.18;1.50;;;;;;;26.62;38.99;100794.88;4429569;32;20037;-68
2021/08/18 02:30:34;;;;;;;4.97;1.73;;;;;;;26.70;39.40;100803.66;4428010;32;20025;-68
2021/08/18 02:33:00;;;;;;;4.10;1.80;;;;;;;26.26;40.19;100801.44;4430461;32;20033;-68
2021/08/18 02:35:26;;;;;;;4.18;1.80;;;;;;;26.24;39.69;100781.00;4428124;32;20406;-68
2021/08/18 02:37:55;;;;;;;3.70;1.50;;;;;;;26.39;39.56;100790.75;4427980;32;20354;-68
2021/08/18 02:40:21;;;;;;;3.83;1.58;;;;;;;26.61;39.14;100786.72;4427167;32;20025;-68
2021/08/18 02:42:49;;;;;;;4.10;1.80;;;;;;;26.69;39.00;100787.69;4430500;32;20060;-68
2021/08/18 02:45:17;;;;;;;4.70;1.70;;;;;;;26.77;38.76;100777.03;4429859;32;20085;-68
2021/08/18 02:47:43;;;;;;;5.20;1.83;;;;;;;26.50;39.15;100779.03;4430972;32;20042;-68
2021/08/18 02:50:11;;;;;;;3.62;1.75;;;;;;;26.49;39.15;100782.47;4427144;32;20292;-68
2021/08/18 02:52:37;;;;;;;3.30;1.70;;;;;;;26.26;39.54;100790.66;4429370;32;20057;-68
2021/08/18 02:55:04;;;;;;;3.70;1.50;;;;;;;25.83;40.68;100786.28;4429055;32;20030;-68
2021/08/18 02:57:30;;;;;;;3.42;1.50;;;;;;;25.91;40.60;100787.19;4427951;32;20068;-68
2021/08/18 02:59:56;;;;;;;3.87;1.60;;;;;;;25.93;40.45;100776.69;4428128;32;20030;-68
2021/08/18 03:02:23;;;;;;;3.83;1.65;;;;;;;25.85;40.56;100778.63;4427986;32;20070;-68
2021/08/18 03:04:49;;;;;;;2.72;1.50;;;;;;;26.03;40.51;100777.91;4429177;32;20120;-68
2021/08/18 03:07:15;;;;;;;3.15;1.23;;;;;;;25.76;40.79;100772.44;4426740;32;20026;-68
2021/08/18 03:09:41;;;;;;;5.18;1.60;;;;;;;25.70;41.10;100772.53;4429391;32;20099;-68
2021/08/18 03:12:07;;;;;;;4.75;1.70;;;;;;;25.97;40.54;100773.47;4429855;32;20105;-68
2021/08/18 03:14:33;;;;;;;3.92;1.30;;;;;;;25.61;41.22;100775.78;4429777;32;20037;-68
2021/08/18 03:16:59;;;;;;;3.15;1.70;;;;;;;25.17;42.09;100776.25;4426503;32;20147;-68
2021/08/18 03:19:25;;;;;;;3.85;1.42;;;;;;;25.51;41.50;100771.72;4429127;32;20438;-68
2021/08/18 03:21:51;;;;;;;4.82;1.48;;;;;;;25.41;41.66;100767.66;4429778;32;20492;-68
2021/08/18 03:24:17;;;;;;;1.65;1.20;;;;;;;25.41;41.72;100779.19;4430293;32;20064;-68
2021/08/18 03:26:44;;;;;;;4.03;1.45;;;;;;;25.53;41.46;100771.19;4425635;32;20069;-68
2021/08/18 03:29:10;;;;;;;2.25;1.40;;;;;;;25.53;41.64;100776.94;4429437;32;20021;-68
2021/08/18 03:31:35;;;;;;;3.60;1.45;;;;;;;25.47;41.70;100767.56;4428779;32;20511;-68
2021/08/18 03:34:02;;;;;;;4.72;1.75;;;;;;;25.61;41.48;100770.03;4430178;32;20061;-68
2021/08/18 03:36:28;;;;;;;1.98;1.40;;;;;;;25.37;41.86;100762.19;4428493;32;20121;-68
2021/08/18 03:38:54;;;;;;;4.05;1.75;;;;;;;25.37;41.92;100766.37;4424970;32;20073;-68
2021/08/18 03:41:19;;;;;;;2.28;1.30;;;;;;;25.55;41.56;100757.00;4427640;32;20050;-68
2021/08/18 03:43:45;;;;;;;4.72;1.80;;;;;;;25.74;41.03;100760.69;4431602;32;20068;-68
2021/08/18 03:46:11;;;;;;;4.25;1.48;;;;;;;25.67;41.29;100762.09;4426969;32;20593;-68
2021/08/18 03:48:37;;;;;;;3.90;1.40;;;;;;;25.69;41.24;100756.56;4427037;32;20434;-68
2021/08/18 03:51:03;;;;;;;2.85;1.48;;;;;;;25.91;40.63;100758.34;4426773;32;20060;-68
2021/08/18 03:53:28;;;;;;;2.67;1.52;;;;;;;25.83;40.79;100760.31;4428421;32;20098;-68
2021/08/18 03:55:55;;;;;;;3.20;1.42;;;;;;;25.84;40.67;100753.22;4428589;32;20052;-68
2021/08/18 03:58:20;;;;;;;3.05;1.48;;;;;;;25.74;41.10;100758.56;4428770;32;20419;-68
2021/08/18 04:00:46;;;;;;;2.75;1.62;;;;;;;26.00;40.52;100755.91;4425960;32;20367;-68
2021/08/18 04:03:12;;;;;;;2.75;1.73;;;;;;;26.13;40.35;100753.09;4428439;32;20038;-68
2021/08/18 04:05:37;;;;;;;4.93;1.52;;;;;;;25.70;41.31;100760.22;4428867;32;20030;-68
2021/08/18 04:08:07;;;;;;;1.98;1.20;;;;;;;26.19;40.68;100758.78;4428476;32;20021;-68
2021/08/18 04:10:33;;;;;;;4.43;1.30;;;;;;;25.94;41.22;100752.28;4427167;32;20075;-68
2021/08/18 04:13:00;;;;;;;3.10;0.90;;;;;;;25.67;41.86;100755.56;4426568;32;20094;-68
2021/08/18 04:15:28;;;;;;;2.05;1.00;;;;;;;25.90;41.61;100753.94;4426749;32;20072;-68
2021/08/18 04:17:55;;;;;;;2.08;1.00;;;;;;;25.83;41.60;100740.91;4426594;32;20056;-68
2021/08/18 04:20:22;;;;;;;2.47;0.82;;;;;;;25.87;41.62;100738.50;4427271;32;20069;-68
2021/08/18 04:22:48;;;;;;;1.10;0.75;;;;;;;25.70;42.04;100745.78;4424438;32;20055;-68
2021/08/18 04:25:16;;;;;;;1.17;0.70;;;;;;;25.63;42.03;100747.22;4430577;32;20119;-68
2021/08/18 04:27:42;;;;;;;1.23;0.70;;;;;;;25.64;42.04;100748.00;4424636;32;20139;-68
2021/08/18 04:30:10;;;;;;;1.35;0.68;;;;;;;25.17;42.89;100751.12;4427055;32;20433;-68
2021/08/18 04:32:36;;;;;;;1.80;0.90;;;;;;;25.14;43.18;100748.53;4426080;32;20077;-68
2021/08/18 04:35:02;;;;;;;1.95;0.82;;;;;;;25.14;43.15;100743.56;4428312;32;20108;-68
2021/08/18 04:37:28;;;;;;;0.90;0.80;;;;;;;25.21;42.91;100747.94;4425965;32;20033;-68
2021/08/18 04:39:54;;;;;;;2.62;0.85;;;;;;;24.78;43.59;100747.84;4428641;32;20098;-68
2021/08/18 04:42:19;;;;;;;1.92;1.02;;;;;;;25.30;42.79;100753.31;4427968;32;20037;-68
2021/08/18 04:44:45;;;;;;;1.60;0.90;;;;;;;24.88;43.59;100749.03;4428581;32;20344;-68
2021/08/18 04:47:11;;;;;;;1.75;0.75;;;;;;;24.97;43.38;100750.78;4428071;32;20525;-68
2021/08/18 04:49:36;;;;;;;1.90;0.93;;;;;;;25.22;42.76;100741.63;4425549;32;20046;-68
2021/08/18 04:52:03;;;;;;;2.25;0.93;;;;;;;25.05;43.17;100734.50;4427357;32;20055;-68
2021/08/18 04:54:28;;;;;;;2.58;1.40;;;;;;;25.38;42.50;100726.28;4426273;32;20073;-68
2021/08/18 04:56:54;;;;;;;4.28;0.90;;;;;;;25.63;42.05;100717.59;4427147;32;20114;-68
2021/08/18 04:59:19;;;;;;;2.25;0.80;;;;;;;25.48;42.16;100718.06;4422301;32;20412;-68
2021/08/18 05:01:45;;;;;;;2.08;1.12;;;;;;;25.45;42.28;100718.34;4427781;32;20117;-68
2021/08/18 05:04:11;;;;;;;1.98;0.93;;;;;;;25.68;41.73;100719.63;4428103;32;20093;-68
2021/08/18 05:06:37;;;;;;;2.95;1.15;;;;;;;25.65;41.85;100717.84;4428130;32;20021;-69
2021/08/18 05:09:03;;;;;;;2.42;1.00;;;;;;;25.96;41.21;100717.16;4426448;32;20037;-68
2021/08/18 05:11:29;;;;;;;1.77;0.85;;;;;;;26.07;41.08;100712.00;4427470;32;20108;-68
2021/08/18 05:13:55;;;;;;;1.25;0.85;;;;;;;26.01;40.95;100701.91;4428542;32;20048;-68
2021/08/18 05:16:20;;;;;;;2.92;0.90;;;;;;;26.38;40.25;100707.63;4427381;32;20084;-68
2021/08/18 05:18:46;;;;;;;1.70;0.60;;;;;;;26.27;40.48;100702.81;4427171;32;20031;-68
2021/08/18 05:21:13;;;;;;;3.90;0.90;;;;;;;26.27;40.68;100705.69;4423778;32;20399;-68
2021/08/18 05:23:38;;;;;;;1.90;0.77;;;;;;;26.21;40.57;100701.31;4428599;32;20136;-68
2021/08/18 05:26:04;;;;;;;2.08;0.80;;;;;;;26.32;40.49;100701.16;4426663;32;20021;-68
2021/08/18 05:28:29;;;;;;;1.62;0.73;;;;;;;25.59;42.00;100706.41;4425980;32;20041;-68
2021/08/18 05:30:57;;;;;;;1.40;0.70;;;;;;;25.88;41.38;100708.34;4428401;32;20095;-68
2021/08/18 05:33:23;;;;;;;1.98;0.80;;;;;;;26.36;40.70;100710.25;4427076;32;20037;-68
2021/08/18 05:35:50;;;;;;;1.45;0.77;;;;;;;26.44;40.35;100711.16;4430037;32;20190;-68
2021/08/18 05:38:16;;;;;;;1.33;0.88;;;;;;;26.40;40.50;100713.59;4429007;32;20408;-68
2021/08/18 05:40:41;;;;;;;1.48;0.70;;;;;;;26.18;40.87;100700.31;4429130;32;20061;-68
2021/08/18 05:43:07;;;;;;;2.12;0.55;;;;;;;26.64;40.02;100705.63;4429154;32;20034;-68
2021/08/18 05:45:34;;;;;;;1.10;0.60;;;;;;;26.51;40.14;100699.00;4426025;32;20034;-68
2021/08/18 05:48:00;;;;;;;1.80;0.70;;;;;;;25.84;41.19;100692.69;4427519;32;20492;-68
2021/08/18 05:50:26;;;;;;;1.95;0.60;;;;;;;26.11;40.79;100700.19;4425785;32;20136;-68
2021/08/18 05:52:51;;;;;;;1.08;0.68;;;;;;;26.12;40.84;100693.06;4429865;32;20092;-68
2021/08/18 05:55:17;;;;;;;1.62;0.80;;;;;;;26.19;40.49;100695.31;4430968;32;20100;-68
2021/08/18 05:57:42;;;;;;;1.73;0.90;;;;;;;25.87;40.68;100694.47;4429435;32;20068;-68
2021/08/18 06:00:09;;;;;;;1.90;0.90;;;;;;;25.55;41.42;100697.25;4429540;32;20157;-68
2021/08/18 06:02:35;;;;;;;1.40;0.82;;;;;;;25.28;41.90;100701.25;4430942;32;20056;-68
2021/08/18 06:05:01;;;;;;;1.90;0.80;;;;;;;25.20;42.19;100692.44;4429094;32;20136;-68
2021/08/18 06:07:27;;;;;;;4.65;1.30;;;;;;;25.29;41.93;100700.72;4425922;32;20026;-68
2021/08/18 06:09:52;;;;;;;2.95;1.05;;;;;;;25.18;41.95;100702.91;4429334;32;20469;-68
2021/08/18 06:12:18;;;;;;;2.80;0.77;;;;;;;24.80;42.80;100690.53;4430540;32;20095;-68
2021/08/18 06:14:44;;;;;;;1.62;0.80;;;;;;;25.28;41.85;100698.37;4431195;32;20498;-68
2021/08/18 06:17:09;;;;;;;1.92;1.02;;;;;;;25.37;41.66;100695.91;4429841;32;20030;-68
2021/08/18 06:19:35;;;;;;;3.25;0.80;;;;;;;25.27;41.87;100691.03;4430058;32;20034;-68
2021/08/18 06:22:01;;;;;;;3.17;0.75;;;;;;;25.11;42.32;100697.78;4428857;32;20157;-68
2021/08/18 06:24:29;;;;;;;2.20;0.90;;;;;;;25.40;41.70;100687.50;4430789;32;20096;-68
2021/08/18 06:26:56;;;;;;;1.42;0.62;;;;;;;25.69;41.04;100692.34;4431478;32;20339;-68
2021/08/18 06:29:22;;;;;;;1.33;0.70;;;;;;;25.77;41.03;100696.19;4421966;32;20380;-68
2021/08/18 06:31:49;;;;;;;5.70;0.68;;;;;;;25.80;40.82;100703.75;4425439;32;20046;-68
2021/08/18 06:34:15;;;;;;;3.20;0.55;;;;;;;25.96;40.35;100699.84;4429937;32;20038;-68
2021/08/18 06:36:42;;;;;;;1.33;0.73;;;;;;;25.72;40.74;100699.91;4422446;32;20120;-68
2021/08/18 06:39:07;;;;;;;2.75;1.95;;;;;;;25.24;41.75;100695.78;4423465;32;20110;-68
2021/08/18 06:41:33;;;;;;;2.37;0.43;;;;;;;25.61;41.30;100689.31;4421269;32;20073;-68
2021/08/18 06:43:59;;;;;;;0.88;0.50;;;;;;;25.61;41.19;100697.19;4426620;32;20026;-68
2021/08/18 06:46:25;;;;;;;3.30;0.60;;;;;;;25.97;40.55;100696.41;4422986;32;20073;-68
2021/08/18 06:48:51;;;;;;;3.12;0.50;;;;;;;26.31;39.92;100696.69;4425265;32;20581;-68
2021/08/18 06:51:16;;;;;;;1.10;0.40;;;;;;;25.44;41.44;100693.75;4425454;32;20046;-68
2021/08/18 06:53:43;;;;;;;0.47;0.37;;;;;;;25.30;41.82;100698.59;4427537;32;20100;-68
2021/08/18 06:56:10;;;;;;;2.10;0.40;;;;;;;25.61;41.30;100700.09;4427909;32;20366;-68
2021/08/18 06:58:37;;;;;;;0.80;0.77;;;;;;;26.03;40.67;100699.22;4425788;32;20475;-68
2021/08/18 07:01:04;;;;;;;2.55;0.52;;;;;;;26.21;40.11;100705.00;4428475;32;20395;-68
2021/08/18 07:03:30;;;;;;;2.90;0.55;;;;;;;26.21;40.08;100707.09;4426626;32;20021;-68
2021/08/18 07:05:56;;;;;;;2.17;0.40;;;;;;;26.12;40.11;100698.84;4429431;32;20349;-68
2021/08/18 07:08:22;;;;;;;1.55;0.37;;;;;;;25.90;40.56;100690.50;4423006;32;20095;-68
2021/08/18 07:10:48;;;;;;;1.55;0.40;;;;;;;25.79;40.68;100684.87;4426270;32;20093;-68
2021/08/18 07:13:14;;;;;;;2.45;0.40;;;;;;;25.58;41.24;100689.66;4426138;32;20025;-68
2021/08/18 07:15:39;;;;;;;1.17;0.40;;;;;;;26.00;40.48;100695.34;4425166;32;20073;-68
2021/08/18 07:18:05;;;;;;;0.60;0.25;;;;;;;25.28;41.76;100696.25;4426190;32;20030;-68
2021/08/18 07:20:31;;;;;;;2.05;0.40;;;;;;;25.66;41.16;100691.34;4422800;32;20369;-68
2021/08/18 07:22:56;;;;;;;1.95;0.60;;;;;;;25.94;40.53;100685.97;4425610;32;20041;-68
2021/08/18 07:25:22;;;;;;;1.15;0.65;;;;;;;25.69;41.05;100692.34;4421666;32;20668;-68
2021/08/18 07:27:48;;;;;;;1.40;0.60;;;;;;;25.64;41.16;100694.00;4426191;32;20422;-68
2021/08/18 07:30:15;;;;;;;5.05;0.70;;;;;;;25.41;41.41;100689.06;4418724;32;20029;-68
2021/08/18 07:32:42;;;;;;;2.05;0.52;;;;;;;25.55;41.24;100690.72;4425007;32;20159;-68
2021/08/18 07:35:08;;;;;;;3.28;0.90;;;;;;;25.82;40.66;100701.09;4430407;32;20056;-68
2021/08/18 07:37:34;;;;;;;1.30;0.47;;;;;;;26.17;39.89;100692.22;4425328;32;20134;-68
2021/08/18 07:39:59;;;;;;;4.10;0.70;;;;;;;26.36;39.68;100698.72;4422219;32;20030;-68
2021/08/18 07:42:26;;;;;;;2.28;0.40;;;;;;;26.66;39.13;100693.53;4421092;32;20021;-68
2021/08/18 07:44:52;;;;;;;2.72;0.40;;;;;;;26.58;39.29;100692.56;4426763;32;20089;-68
2021/08/18 07:47:18;;;;;;;2.22;0.50;;;;;;;26.10;39.73;100689.94;4426689;32;20549;-68
2021/08/18 07:49:44;;;;;;;3.12;0.57;;;;;;;26.44;39.01;100697.53;4426421;32;20085;-68
2021/08/18 07:52:10;;;;;;;1.58;0.50;;;;;;;26.74;38.54;100688.63;4425213;32;20062;-68
2021/08/18 07:54:35;;;;;;;1.98;0.60;;;;;;;26.97;37.83;100696.31;4425778;32;20403;-68
2021/08/18 07:57:01;;;;;;;4.18;0.68;;;;;;;27.34;37.49;100689.59;4427875;32;20165;-68
2021/08/18 07:59:27;;;;;;;1.15;0.50;;;;;;;27.35;37.16;100696.94;4424419;32;20131;-68
2021/08/18 08:01:53;;;;;;;1.50;0.50;;;;;;;27.39;37.11;100697.34;4424420;32;20388;-68
2021/08/18 08:04:18;;;;;;;1.70;0.60;;;;;;;27.14;37.56;100696.78;4426906;32;20071;-68
2021/08/18 08:06:46;;;;;;;1.30;0.50;;;;;;;27.11;37.43;100691.34;4426751;32;20096;-68
2021/08/18 08:09:12;;;;;;;2.30;0.50;;;;;;;27.16;37.54;100688.31;4425958;32;20093;-68
2021/08/18 08:11:38;;;;;;;0.90;0.35;;;;;;;27.07;37.67;100685.13;4423621;32;20021;-68
2021/08/18 08:14:06;;;;;;;1.95;0.68;;;;;;;27.54;36.70;100682.31;4427564;32;20107;-68
2021/08/18 08:16:32;;;;;;;2.75;0.60;;;;;;;27.56;36.64;100685.44;4426277;32;20538;-68
2021/08/18 08:18:58;;;;;;;1.85;0.40;;;;;;;26.84;37.99;100684.75;4425858;32;20065;-68
2021/08/18 08:21:25;;;;;;;0.93;0.40;;;;;;;26.98;37.90;100679.78;4424283;32;20060;-68
2021/08/18 08:23:51;;;;;;;1.25;0.40;;;;;;;26.84;38.00;100686.88;4429697;32;20075;-68
2021/08/18 08:26:17;;;;;;;1.67;0.40;;;;;;;27.04;37.85;100689.91;4420358;32;20203;-68
2021/08/18 08:28:43;;;;;;;1.65;0.50;;;;;;;26.79;38.23;100688.53;4419153;32;20154;-68
2021/08/18 08:31:09;;;;;;;3.70;0.52;;;;;;;26.23;39.45;100690.03;4426032;32;20041;-68
2021/08/18 08:33:35;;;;;;;1.95;0.50;;;;;;;26.70;38.72;100683.19;4424530;32;20078;-68
2021/08/18 08:36:01;;;;;;;2.12;0.62;;;;;;;26.76;38.32;100686.75;4423913;32;20057;-68
2021/08/18 08:38:26;;;;;;;3.85;0.73;;;;;;;27.17;37.67;100681.25;4421159;32;20435;-68
2021/08/18 08:40:52;;;;;;;3.17;0.20;;;;;;;26.91;37.86;100680.44;4416068;32;20103;-68
2021/08/18 08:43:19;;;;;;;3.58;0.50;;;;;;;26.86;37.90;100678.44;4421299;32;20337;-68
2021/08/18 08:45:47;;;;;;;1.25;0.50;;;;;;;26.96;37.63;100673.78;4425444;32;20030;-68
2021/08/18 08:48:15;;;;;;;1.52;0.50;;;;;;;27.36;37.17;100681.13;4418130;32;20049;-68
2021/08/18 08:50:41;;;;;;;0.30;0.30;;;;;;;27.62;36.79;100678.22;4422094;32;20049;-68
2021/08/18 08:53:07;;;;;;;4.87;0.73;;;;;;;27.99;36.04;100680.03;4423671;32;20374;-68
2021/08/18 08:55:32;;;;;;;2.10;0.45;;;;;;;28.14;35.70;100686.78;4422834;32;20025;-68
2021/08/18 08:57:58;;;;;;;10.52;3.08;;;;;;;27.23;37.19;100684.00;4423282;32;20053;-68
2021/08/18 09:00:25;;;;;;;1.52;0.50;;;;;;;27.20;37.33;100693.78;4424589;32;20060;-68
2021/08/18 09:05:45;;;;;;;1.92;0.60;;;;;;;27.95;36.74;100691.19;3984063;32;15023072;-68
2021/08/18 09:08:13;;;;;;;3.53;0.62;;;;;;;27.95;36.74;100691.19;4434670;32;20125;-68
2021/08/18 09:10:39;;;;;;;2.10;0.75;;;;;;;27.41;37.33;100688.91;4434962;32;20137;-68
2021/08/18 09:13:12;;;;;;;3.28;0.77;;;;;;;27.20;37.55;100694.56;4437277;32;20086;-68
2021/08/18 09:15:38;;;;;;;1.60;0.73;;;;;;;27.61;37.10;100691.09;4439551;32;20495;-68
2021/08/18 09:18:04;;;;;;;1.40;0.50;;;;;;;27.17;37.87;100692.78;4436475;32;20041;-68
2021/08/18 09:20:29;;;;;;;0.65;0.40;;;;;;;26.66;38.77;100697.16;4437100;32;20042;-68
2021/08/18 09:22:58;;;;;;;0.95;0.52;;;;;;;26.83;38.06;100689.00;4435794;32;20076;-68
2021/08/18 09:30:39;;;;;;;1.17;0.55;;;;;;;28.13;36.20;100691.00;3984481;32;15023823;-68
2021/08/18 09:33:13;;;;;;;1.42;0.70;;;;;;;28.13;36.20;100691.00;4433085;32;20021;-68
2021/08/18 09:35:40;;;;;;;1.55;0.60;;;;;;;27.14;37.62;100690.22;4438107;32;20535;-68
2021/08/18 09:38:09;;;;;;;1.35;0.50;;;;;;;26.62;38.88;100678.59;4436043;32;20040;-68
2021/08/18 09:40:40;;;;;;;1.75;0.68;;;;;;;26.51;39.21;100678.78;4434257;32;20065;-68
2021/08/18 09:45:53;;;;;;;2.35;0.45;;;;;;;26.64;40.02;100676.75;3969688;32;15014249;-68
2021/08/18 09:48:19;;;;;;;4.18;0.60;;;;;;;26.64;40.02;100676.75;4404835;32;20553;-68
2021/08/18 09:50:56;;;;;;;0.85;0.55;;;;;;;26.90;39.04;100673.09;4418786;32;20060;-68
2021/08/18 09:53:28;;;;;;;1.02;0.28;;;;;;;27.51;37.96;100672.66;4420431;32;20101;-68
2021/08/18 10:01:14;;;;;;;1.27;0.28;;;;;;;27.52;37.88;100682.88;3986132;32;15022694;-66
2021/08/18 10:03:42;;;;;;;0.20;0.20;;;;;;;27.52;37.88;100682.88;4438304;32;20101;-67
2021/08/18 10:06:10;;;;;;;0.30;0.20;;;;;;;27.30;37.88;100665.25;4437187;32;20097;-67
2021/08/18 10:08:37;;;;;;;0.45;0.30;;;;;;;26.95;38.72;100663.56;4433024;32;20348;-68
2021/08/18 10:11:04;;;;;;;0.57;0.30;;;;;;;27.63;37.58;100661.63;4435428;32;20101;-67
2021/08/18 10:13:31;;;;;;;1.08;0.30;;;;;;;28.33;36.30;100654.72;4437451;32;20099;-67
2021/08/18 10:15:58;;;;;;;1.35;0.37;;;;;;;27.60;37.52;100666.44;4441653;32;20125;-67
2021/08/18 10:21:08;;;;;;;1.37;0.20;;;;;;;30.20;33.77;100660.16;3999987;31;15019903;-68
2021/08/18 10:39:40;;;;;;;0.70;0.50;;;;;;;29.99;33.83;100662.38;3981652;32;15023568;-68
2021/08/18 10:50:23;;;;;;;0.50;0.28;;;;;;;30.93;32.56;100665.84;3991317;32;15023558;-68
2021/08/18 10:52:50;;;;;;;1.12;0.55;;;;;;;30.93;32.56;100665.84;4446892;32;20425;-68
2021/08/18 11:00:43;;;;;;;0.65;0.30;;;;;;;31.40;32.16;100651.41;4000919;31;15016748;-68
2021/08/18 11:05:49;;;;;;;1.10;0.40;;;;;;;31.75;31.44;100647.37;3959497;32;15722495;-68
2021/08/18 11:08:21;;;;;;;1.48;0.37;;;;;;;31.75;31.44;100647.37;4432429;32;20340;-68
2021/08/18 11:13:48;;;;;;;2.05;0.50;;;;;;;29.99;34.31;100663.19;3987533;32;15024587;-69
2021/08/18 11:21:28;;;;;;;3.60;0.60;;;;;;;30.12;34.17;100663.00;3978936;32;15023055;-69
2021/08/18 11:23:58;;;;;;;1.55;0.43;;;;;;;30.12;34.17;100663.00;4432039;32;20114;-69
2021/08/18 11:26:30;;;;;;;0.70;0.40;;;;;;;30.14;33.76;100671.94;4434150;32;20053;-69
2021/08/18 11:29:00;;;;;;;2.40;0.45;;;;;;;29.47;34.89;100652.12;4431849;32;20021;-68
2021/08/18 11:37:07;;;;;;;1.65;0.90;;;;;;;30.42;34.00;100660.19;3984958;32;15024737;-69
2021/08/18 11:39:36;;;;;;;3.95;1.20;;;;;;;30.42;34.00;100660.19;4428905;32;20041;-68
2021/08/18 11:45:15;;;;;;;2.40;1.30;;;;;;;29.94;34.47;100645.97;3983667;32;15038852;-69
2021/08/18 11:47:41;;;;;;;1.80;0.85;;;;;;;30.45;33.99;100632.91;4428961;32;20119;-68
2021/08/18 11:50:13;;;;;;;2.17;1.05;;;;;;;30.76;33.48;100643.19;4430344;32;20038;-68
2021/08/18 11:52:40;;;;;;;3.10;1.02;;;;;;;30.69;33.51;100625.72;4437583;32;20414;-68
2021/08/18 11:55:06;;;;;;;3.47;1.10;;;;;;;31.37;32.55;100640.16;4438992;32;20064;-68
2021/08/18 11:57:32;;;;;;;1.70;0.90;;;;;;;31.73;31.96;100637.69;4434456;32;20081;-68
2021/08/18 12:00:01;;;;;;;2.22;1.08;;;;;;;31.94;31.75;100647.69;4427570;32;20053;-68
2021/08/18 12:02:29;;;;;;;2.22;1.30;;;;;;;32.14;31.28;100642.91;4435087;32;20063;-68
2021/08/18 12:04:56;;;;;;;3.62;1.52;;;;;;;32.22;31.33;100626.16;4431287;32;20549;-68
2021/08/18 12:07:26;;;;;;;2.10;1.25;;;;;;;32.20;31.04;100631.78;4439215;32;20129;-69
2021/08/18 12:13:05;;;;;;;2.10;1.25;;;;;;;34.15;28.27;100643.56;3984282;32;15023674;-69
2021/08/18 12:15:42;;;;;;;2.03;1.27;;;;;;;34.15;28.27;100643.56;4431450;32;20323;-69
2021/08/18 12:18:32;;;;;;;1.50;1.27;;;;;;;34.14;27.93;100645.72;4437576;32;20104;-68
2021/08/18 12:21:19;;;;;;;1.73;1.35;;;;;;;33.99;27.82;100642.25;4433753;32;20324;-68
2021/08/18 12:23:47;;;;;;;2.15;1.30;;;;;;;33.72;28.35;100632.66;4435355;32;20045;-68
2021/08/18 12:29:05;;;;;;;3.55;1.20;;;;;;;32.71;30.59;100645.78;4005480;31;15020336;-68
2021/08/18 12:39:46;;;;;;;2.30;1.10;;;;;;;30.53;33.87;100622.03;3982950;32;15044166;-69
2021/08/18 12:45:01;;;;;;;1.15;0.88;;;;;;;29.82;35.03;100638.94;3992123;32;15038229;-69
2021/08/18 12:47:32;;;;;;;2.17;1.08;;;;;;;29.82;35.03;100638.94;4453356;32;20041;-69
2021/08/18 12:49:58;;;;;;;2.22;0.90;;;;;;;29.87;34.72;100635.88;4449015;32;20029;-69